createdAt,value
2022-09-11T00:01:51.257Z,0
2022-09-11T00:07:16.784Z,0
2022-09-11T00:12:50.877Z,0
2022-09-11T00:18:23.398Z,0
2022-09-11T00:23:45.920Z,0
2022-09-11T00:29:08.499Z,0
2022-09-11T00:34:30.943Z,0
2022-09-11T00:39:53.351Z,0
2022-09-11T00:45:16.236Z,0
2022-09-11T00:50:38.605Z,0
2022-09-11T00:56:04.090Z,0
2022-09-11T01:01:26.678Z,0
2022-09-11T01:06:49.154Z,0
2022-09-11T01:12:17.488Z,0
2022-09-11T01:17:39.944Z,0
2022-09-11T01:23:13.415Z,0
2022-09-11T01:28:35.838Z,0
2022-09-11T01:39:23.991Z,0
2022-09-11T01:44:46.482Z,0
2022-09-11T01:50:11.782Z,0
2022-09-11T01:55:34.127Z,0
2022-09-11T02:00:59.804Z,0
2022-09-11T02:06:23.714Z,0
2022-09-11T02:11:46.853Z,0
2022-09-11T02:17:09.349Z,0
2022-09-11T02:22:34.871Z,0
2022-09-11T02:28:07.009Z,0
2022-09-11T02:33:29.357Z,0
2022-09-11T02:38:51.562Z,0
2022-09-11T02:44:14.167Z,0
2022-09-11T02:49:42.343Z,0
2022-09-11T02:55:04.972Z,0
2022-09-11T03:00:27.249Z,0
2022-09-11T03:05:52.930Z,0
2022-09-11T03:11:18.231Z,0
2022-09-11T03:16:40.566Z,0
2022-09-11T03:27:08.711Z,0
2022-09-11T03:32:49.430Z,0
2022-09-11T03:38:11.835Z,0
2022-09-11T03:48:45.097Z,0
2022-09-11T03:54:08.011Z,0
2022-09-11T03:59:51.486Z,0
2022-09-11T04:05:13.913Z,0
2022-09-11T04:10:36.228Z,0
2022-09-11T04:15:58.838Z,0
2022-09-11T04:21:21.457Z,0
2022-09-11T04:26:46.550Z,0
2022-09-11T04:32:09.253Z,0
2022-09-11T04:37:34.707Z,0
2022-09-11T04:43:00.246Z,0
2022-09-11T04:48:22.830Z,0
2022-09-11T04:53:47.700Z,0
2022-09-11T04:59:16.208Z,0
2022-09-11T05:04:38.872Z,0
2022-09-11T05:10:01.285Z,0
2022-09-11T05:26:21.082Z,0.1
2022-09-11T05:31:43.749Z,0.1
2022-09-11T05:37:12.711Z,0.1
2022-09-11T05:42:35.218Z,0.2
2022-09-11T05:48:03.664Z,0.2
2022-09-11T05:53:26.169Z,0.2
2022-09-11T05:59:01.627Z,0.2
2022-09-11T06:04:23.682Z,0.2
2022-09-11T06:09:46.688Z,0.2
2022-09-11T06:15:30.386Z,0.2
2022-09-11T06:21:09.986Z,0.3
2022-09-11T06:26:35.697Z,0.3
2022-09-11T06:31:58.347Z,0.3
2022-09-11T06:37:23.377Z,0.3
2022-09-11T06:42:45.831Z,0.3
2022-09-11T06:48:08.462Z,0.8
2022-09-11T06:53:31.301Z,0.8
2022-09-11T06:58:53.852Z,0.7
2022-09-11T07:04:16.509Z,1.3
2022-09-11T07:09:39.126Z,0.8
2022-09-11T07:15:11.011Z,1.2
2022-09-11T07:20:33.603Z,0.6
2022-09-11T07:25:56.254Z,0.9
2022-09-11T07:31:20.986Z,0.6
2022-09-11T07:36:47.529Z,1.1
2022-09-11T07:42:10.548Z,1.3
2022-09-11T07:47:42.835Z,1.7
2022-09-11T07:53:05.162Z,1.5
2022-09-11T07:59:45.854Z,1.6
2022-09-11T08:05:12.761Z,1.1
2022-09-11T08:10:35.089Z,1.5
2022-09-11T08:15:58.076Z,3.9
2022-09-11T08:21:20.043Z,1.6
2022-09-11T08:26:45.663Z,2.6
2022-09-11T08:32:15.624Z,3.4
2022-09-11T08:37:37.428Z,2
2022-09-11T08:43:04.529Z,1.3
2022-09-11T08:48:26.588Z,1.1
2022-09-11T08:53:56.755Z,1
2022-09-11T08:59:22.159Z,1.3
2022-09-11T09:04:44.804Z,1.5
2022-09-11T09:21:06.041Z,7.2
2022-09-11T09:26:31.727Z,5.3
2022-09-11T09:32:02.160Z,3
2022-09-11T09:37:25.857Z,3.7
2022-09-11T09:42:47.174Z,4.3
2022-09-11T09:48:10.348Z,6.4
2022-09-11T09:58:35.374Z,1.9
2022-09-11T10:03:57.187Z,1.8
2022-09-11T10:09:19.342Z,2
2022-09-11T10:14:55.714Z,2.5
2022-09-11T10:20:27.779Z,2.3
2022-09-11T10:25:50.494Z,3.2
2022-09-11T10:31:13.383Z,3.6
2022-09-11T10:36:37.881Z,6.1
2022-09-11T10:42:01.482Z,6.3
2022-09-11T10:47:24.875Z,4.1
2022-09-11T10:58:24.547Z,1.4
2022-09-11T11:03:46.681Z,5.6
2022-09-11T11:09:10.458Z,1.3
2022-09-11T11:14:32.531Z,1.8
2022-09-11T11:19:57.036Z,6.1
2022-09-11T11:25:20.898Z,7.2
2022-09-11T11:30:42.752Z,1.8
2022-09-11T11:36:04.745Z,6.1
2022-09-11T11:41:28.392Z,1.7
2022-09-11T11:46:56.121Z,7
2022-09-11T11:57:32.250Z,2.6
2022-09-11T12:02:53.235Z,1.5
2022-09-11T12:08:15.597Z,1.3
2022-09-11T12:13:38.215Z,7.2
2022-09-11T12:19:03.256Z,6
2022-09-11T12:24:24.413Z,3.2
2022-09-11T12:29:51.135Z,1.8
2022-09-11T12:35:20.415Z,1.7
2022-09-11T12:40:43.798Z,7.4
2022-09-11T12:46:20.144Z,6.6
2022-09-11T12:51:43.973Z,4.6
2022-09-11T12:57:08.582Z,2.5
2022-09-11T13:02:30.094Z,1.2
2022-09-11T13:07:51.771Z,1.5
2022-09-11T13:13:17.979Z,1.3
2022-09-11T13:18:39.786Z,5.8
2022-09-11T13:25:25.440Z,5.3
2022-09-11T13:30:49.929Z,4.7
2022-09-11T13:36:13.447Z,4.9
2022-09-11T13:41:40.187Z,4.9
2022-09-11T13:47:02.778Z,4.5
2022-09-11T13:52:28.451Z,4.1
2022-09-11T14:36:07.886Z,4.1
2022-09-11T14:41:31.267Z,3.9
2022-09-11T14:46:57.098Z,4.2
2022-09-11T14:57:40.154Z,0.5
2022-09-11T15:03:04.681Z,0.4
2022-09-11T15:08:26.976Z,0.3
2022-09-11T15:14:11.269Z,0.3
2022-09-11T15:20:17.885Z,0.3
2022-09-11T15:25:40.093Z,0.3
2022-09-11T15:31:02.489Z,0.3
2022-09-11T15:36:25.459Z,0.3
2022-09-11T15:41:50.972Z,0.3
2022-09-11T15:47:13.455Z,0.3
2022-09-11T15:52:36.174Z,0.2
2022-09-11T15:57:58.542Z,0.3
2022-09-11T16:03:20.942Z,0.2
2022-09-11T16:08:43.288Z,0.2
2022-09-11T16:14:05.725Z,0.3
2022-09-11T16:19:28.319Z,0.2
2022-09-11T16:24:51.021Z,0.2
2022-09-11T16:30:58.533Z,0.2
2022-09-11T16:36:21.489Z,0.2
2022-09-11T16:41:43.740Z,0.2
2022-09-11T16:47:06.462Z,0.2
2022-09-11T16:52:28.978Z,0.2
2022-09-11T16:57:51.745Z,0.1
2022-09-11T17:03:14.298Z,0.1
2022-09-11T17:13:58.888Z,0.1
2022-09-11T17:19:21.375Z,0.1
2022-09-11T17:24:43.911Z,0.1
2022-09-11T17:30:06.387Z,0.1
2022-09-11T17:35:28.626Z,0.1
2022-09-11T17:41:08.507Z,0.1
2022-09-11T17:46:30.982Z,0.1
2022-09-11T17:51:53.868Z,0.1
2022-09-11T17:57:16.220Z,0
2022-09-11T18:02:38.608Z,0
2022-09-11T18:08:01.076Z,0
2022-09-11T18:13:23.279Z,0
2022-09-11T18:18:45.554Z,0
2022-09-11T18:24:25.773Z,0
2022-09-11T18:29:50.028Z,0
2022-09-11T18:35:15.187Z,0
2022-09-11T18:40:37.541Z,0
2022-09-11T18:46:03.284Z,0
2022-09-11T18:51:25.981Z,0
2022-09-11T18:57:07.399Z,0
2022-09-11T19:02:29.899Z,0
2022-09-11T19:07:52.269Z,0
2022-09-11T19:13:14.820Z,0
2022-09-11T19:18:40.633Z,0
2022-09-11T19:24:03.045Z,0
2022-09-11T19:29:43.032Z,0
2022-09-11T19:35:05.348Z,0
2022-09-11T19:40:27.934Z,0
2022-09-11T19:45:50.503Z,0
2022-09-11T19:51:12.863Z,0
2022-09-11T19:56:35.290Z,0
2022-09-11T20:01:57.844Z,0
2022-09-11T20:07:22.908Z,0
2022-09-11T20:12:45.464Z,0
2022-09-11T20:18:07.875Z,0
2022-09-11T20:23:33.354Z,0
2022-09-11T20:28:55.807Z,0
2022-09-11T20:34:18.340Z,0
2022-09-11T20:39:40.918Z,0
2022-09-11T20:45:03.629Z,0
2022-09-11T20:50:26.012Z,0
2022-09-11T21:01:10.902Z,0
2022-09-11T21:06:33.623Z,0
2022-09-11T21:12:13.674Z,0
2022-09-11T21:17:35.996Z,0
2022-09-11T21:22:58.305Z,0
2022-09-11T21:28:20.717Z,0
2022-09-11T21:33:46.146Z,0
2022-09-11T21:39:12.135Z,0
2022-09-11T21:44:39.294Z,0
2022-09-11T21:50:01.486Z,0
2022-09-11T21:55:23.956Z,0
2022-09-11T22:00:46.298Z,0
2022-09-11T22:06:08.923Z,0
2022-09-11T22:11:31.576Z,0
2022-09-11T22:16:54.474Z,0
2022-09-11T22:22:22.196Z,0
2022-09-11T22:27:44.540Z,0
2022-09-11T22:33:09.281Z,0
2022-09-11T22:38:31.891Z,0
2022-09-11T22:43:54.218Z,0
2022-09-11T22:54:38.862Z,0
2022-09-11T23:00:07.930Z,0
2022-09-11T23:05:32.844Z,0
2022-09-11T23:10:55.474Z,0
2022-09-11T23:16:17.865Z,0
2022-09-11T23:21:43.523Z,0
2022-09-11T23:27:08.642Z,0
2022-09-11T23:32:31.023Z,0
2022-09-11T23:37:53.615Z,0
2022-09-11T23:43:34.131Z,0
2022-09-11T23:48:57.037Z,0
2022-09-11T23:54:19.818Z,0
2022-09-11T23:59:54.283Z,0
